sensor_id;sensor_type;location;lat;lon;timestamp;pressure;altitude;pressure_sealevel;temperature;humidity
67840;BME280;54636;51.684;5.142;2023-03-23T00:01:18;100269.59;;;11.40;100.00
67840;BME280;54636;51.684;5.142;2023-03-23T00:03:46;100273.31;;;11.43;100.00
67840;BME280;54636;51.684;5.142;2023-03-23T00:06:12;100269.59;;;11.40;100.00
67840;BME280;54636;51.684;5.142;2023-03-23T00:08:42;100289.59;;;11.48;100.00
67840;BME280;54636;51.684;5.142;2023-03-23T00:11:12;100273.78;;;11.52;100.00
67840;BME280;54636;51.684;5.142;2023-03-23T00:13:41;100277.25;;;11.42;100.00
67840;BME280;54636;51.684;5.142;2023-03-23T00:16:08;100262.19;;;11.41;100.00
67840;BME280;54636;51.684;5.142;2023-03-23T00:18:46;100285.91;;;11.46;100.00
67840;BME280;54636;51.684;5.142;2023-03-23T00:21:12;100287.38;;;11.52;100.00
67840;BME280;54636;51.684;5.142;2023-03-23T00:23:37;100285.41;;;11.47;100.00
67840;BME280;54636;51.684;5.142;2023-03-23T00:26:04;100300.22;;;11.52;100.00
67840;BME280;54636;51.684;5.142;2023-03-23T00:28:29;100292.09;;;11.46;100.00
67840;BME280;54636;51.684;5.142;2023-03-23T00:31:03;100298.25;;;11.52;100.00
67840;BME280;54636;51.684;5.142;2023-03-23T00:33:34;100268.34;;;11.47;100.00
67840;BME280;54636;51.684;5.142;2023-03-23T00:36:04;100254.53;;;11.39;100.00
67840;BME280;54636;51.684;5.142;2023-03-23T00:38:30;100228.56;;;11.44;100.00
67840;BME280;54636;51.684;5.142;2023-03-23T00:40:56;100206.88;;;11.21;100.00
67840;BME280;54636;51.684;5.142;2023-03-23T00:43:23;100220.69;;;11.35;100.00
67840;BME280;54636;51.684;5.142;2023-03-23T00:45:49;100230.09;;;11.28;100.00
67840;BME280;54636;51.684;5.142;2023-03-23T00:48:21;100197.03;;;11.07;100.00
67840;BME280;54636;51.684;5.142;2023-03-23T00:50:47;100227.13;;;11.26;100.00
67840;BME280;54636;51.684;5.142;2023-03-23T00:53:12;100221.69;;;11.26;100.00
67840;BME280;54636;51.684;5.142;2023-03-23T00:55:41;100200.25;;;11.06;100.00
67840;BME280;54636;51.684;5.142;2023-03-23T00:58:07;100212.31;;;11.21;100.00
67840;BME280;54636;51.684;5.142;2023-03-23T01:00:32;100215.78;;;11.11;100.00
67840;BME280;54636;51.684;5.142;2023-03-23T01:02:57;100224.69;;;11.06;100.00
67840;BME280;54636;51.684;5.142;2023-03-23T01:05:23;100219.75;;;11.10;100.00
67840;BME280;54636;51.684;5.142;2023-03-23T01:07:48;100228.69;;;11.05;100.00
67840;BME280;54636;51.684;5.142;2023-03-23T01:10:14;100236.84;;;11.05;100.00
67840;BME280;54636;51.684;5.142;2023-03-23T01:12:43;100210.84;;;11.09;100.00
67840;BME280;54636;51.684;5.142;2023-03-23T01:15:09;100194.78;;;11.11;100.00
67840;BME280;54636;51.684;5.142;2023-03-23T01:17:38;100195.59;;;11.01;100.00
67840;BME280;54636;51.684;5.142;2023-03-23T01:20:03;100208.09;;;11.20;100.00
67840;BME280;54636;51.684;5.142;2023-03-23T01:22:32;100199.47;;;11.22;100.00
67840;BME280;54636;51.684;5.142;2023-03-23T01:24:57;100186.09;;;11.24;100.00
67840;BME280;54636;51.684;5.142;2023-03-23T01:27:22;100178.97;;;11.15;100.00
67840;BME280;54636;51.684;5.142;2023-03-23T01:29:48;100169.34;;;11.14;100.00
67840;BME280;54636;51.684;5.142;2023-03-23T01:32:13;100166.19;;;11.05;100.00
67840;BME280;54636;51.684;5.142;2023-03-23T01:34:38;100162.00;;;10.93;100.00
67840;BME280;54636;51.684;5.142;2023-03-23T01:37:07;100179.19;;;11.23;100.00
67840;BME280;54636;51.684;5.142;2023-03-23T01:39:32;100177.72;;;11.22;100.00
67840;BME280;54636;51.684;5.142;2023-03-23T01:41:58;100182.38;;;11.27;100.00
67840;BME280;54636;51.684;5.142;2023-03-23T01:46:49;100179.66;;;11.27;100.00
67840;BME280;54636;51.684;5.142;2023-03-23T01:49:21;100160.91;;;11.18;100.00
67840;BME280;54636;51.684;5.142;2023-03-23T01:51:53;100141.44;;;11.08;100.00
67840;BME280;54636;51.684;5.142;2023-03-23T01:54:21;100184.78;;;11.47;100.00
67840;BME280;54636;51.684;5.142;2023-03-23T01:56:54;100157.88;;;11.38;100.00
67840;BME280;54636;51.684;5.142;2023-03-23T01:59:23;100153.91;;;11.39;100.00
67840;BME280;54636;51.684;5.142;2023-03-23T02:01:50;100161.53;;;11.46;100.00
67840;BME280;54636;51.684;5.142;2023-03-23T02:04:18;100148.19;;;11.48;100.00
67840;BME280;54636;51.684;5.142;2023-03-23T02:06:45;100151.19;;;11.45;100.00
67840;BME280;54636;51.684;5.142;2023-03-23T02:09:12;100147.31;;;11.70;100.00
67840;BME280;54636;51.684;5.142;2023-03-23T02:11:45;100142.41;;;11.69;100.00
67840;BME280;54636;51.684;5.142;2023-03-23T02:14:11;100157.97;;;11.68;100.00
67840;BME280;54636;51.684;5.142;2023-03-23T02:17:30;100163.38;;;11.74;100.00
67840;BME280;54636;51.684;5.142;2023-03-23T02:22:43;100168.34;;;11.70;100.00
67840;BME280;54636;51.684;5.142;2023-03-23T02:36:20;100155.69;;;11.72;100.00
67840;BME280;54636;51.684;5.142;2023-03-23T02:39:04;100163.13;;;11.77;100.00
67840;BME280;54636;51.684;5.142;2023-03-23T02:41:36;100154.22;;;11.71;100.00
67840;BME280;54636;51.684;5.142;2023-03-23T02:44:06;100131.84;;;11.54;100.00
67840;BME280;54636;51.684;5.142;2023-03-23T02:46:33;100144.41;;;11.63;100.00
67840;BME280;54636;51.684;5.142;2023-03-23T02:49:02;100140.19;;;11.67;100.00
67840;BME280;54636;51.684;5.142;2023-03-23T02:51:30;100150.72;;;11.76;100.00
67840;BME280;54636;51.684;5.142;2023-03-23T02:53:58;100140.63;;;11.77;100.00
67840;BME280;54636;51.684;5.142;2023-03-23T02:56:26;100150.19;;;11.89;100.00
67840;BME280;54636;51.684;5.142;2023-03-23T02:58:54;100159.31;;;11.92;100.00
67840;BME280;54636;51.684;5.142;2023-03-23T03:03:52;100157.31;;;11.98;100.00
67840;BME280;54636;51.684;5.142;2023-03-23T03:06:25;100163.03;;;11.94;100.00
67840;BME280;54636;51.684;5.142;2023-03-23T03:11:46;100153.63;;;11.95;100.00
67840;BME280;54636;51.684;5.142;2023-03-23T03:14:24;100149.91;;;11.93;100.00
67840;BME280;54636;51.684;5.142;2023-03-23T03:20:00;100144.50;;;11.87;100.00
67840;BME280;54636;51.684;5.142;2023-03-23T03:22:33;100164.50;;;11.95;100.00
67840;BME280;54636;51.684;5.142;2023-03-23T03:25:02;100159.03;;;12.01;100.00
67840;BME280;54636;51.684;5.142;2023-03-23T03:27:29;100164.53;;;11.90;100.00
67840;BME280;54636;51.684;5.142;2023-03-23T03:29:58;100164.50;;;11.95;100.00
67840;BME280;54636;51.684;5.142;2023-03-23T03:32:48;100152.41;;;11.91;100.00
67840;BME280;54636;51.684;5.142;2023-03-23T03:35:16;100152.84;;;12.00;100.00
67840;BME280;54636;51.684;5.142;2023-03-23T03:37:42;100146.72;;;11.88;100.00
67840;BME280;54636;51.684;5.142;2023-03-23T03:40:14;100142.19;;;12.02;100.00
67840;BME280;54636;51.684;5.142;2023-03-23T03:42:42;100148.63;;;11.99;100.00
67840;BME280;54636;51.684;5.142;2023-03-23T03:45:09;100160.00;;;12.03;100.00
67840;BME280;54636;51.684;5.142;2023-03-23T03:47:35;100151.63;;;11.96;100.00
67840;BME280;54636;51.684;5.142;2023-03-23T03:50:01;100146.00;;;11.88;100.00
67840;BME280;54636;51.684;5.142;2023-03-23T03:52:26;100157.34;;;11.92;100.00
67840;BME280;54636;51.684;5.142;2023-03-23T03:54:53;100153.66;;;11.90;100.00
67840;BME280;54636;51.684;5.142;2023-03-23T03:57:18;100161.28;;;11.97;100.00
67840;BME280;54636;51.684;5.142;2023-03-23T03:59:45;100151.09;;;12.03;100.00
67840;BME280;54636;51.684;5.142;2023-03-23T04:02:10;100134.28;;;11.99;100.00
67840;BME280;54636;51.684;5.142;2023-03-23T04:04:39;100155.56;;;12.00;100.00
67840;BME280;54636;51.684;5.142;2023-03-23T04:07:05;100162.91;;;12.11;100.00
67840;BME280;54636;51.684;5.142;2023-03-23T04:09:30;100154.56;;;12.03;100.00
67840;BME280;54636;51.684;5.142;2023-03-23T04:11:56;100173.91;;;11.94;100.00
67840;BME280;54636;51.684;5.142;2023-03-23T04:14:22;100161.56;;;11.87;100.00
67840;BME280;54636;51.684;5.142;2023-03-23T04:16:47;100175.59;;;12.03;100.00
67840;BME280;54636;51.684;5.142;2023-03-23T04:19:12;100180.31;;;11.97;100.00
67840;BME280;54636;51.684;5.142;2023-03-23T04:21:38;100180.78;;;12.01;100.00
67840;BME280;54636;51.684;5.142;2023-03-23T04:24:04;100188.75;;;11.93;100.00
67840;BME280;54636;51.684;5.142;2023-03-23T04:26:30;100193.19;;;11.96;100.00
67840;BME280;54636;51.684;5.142;2023-03-23T04:28:55;100181.41;;;11.82;100.00
67840;BME280;54636;51.684;5.142;2023-03-23T04:31:22;100177.94;;;11.82;100.00
67840;BME280;54636;51.684;5.142;2023-03-23T04:33:50;100181.13;;;11.86;100.00
67840;BME280;54636;51.684;5.142;2023-03-23T04:36:19;100200.19;;;11.86;100.00
67840;BME280;54636;51.684;5.142;2023-03-23T04:38:45;100178.44;;;11.80;100.00
67840;BME280;54636;51.684;5.142;2023-03-23T04:41:10;100196.97;;;11.82;100.00
67840;BME280;54636;51.684;5.142;2023-03-23T04:43:36;100193.22;;;11.91;100.00
67840;BME280;54636;51.684;5.142;2023-03-23T04:46:07;100193.47;;;11.93;100.00
67840;BME280;54636;51.684;5.142;2023-03-23T04:48:33;100182.38;;;11.85;100.00
67840;BME280;54636;51.684;5.142;2023-03-23T04:51:01;100180.47;;;11.69;100.00
67840;BME280;54636;51.684;5.142;2023-03-23T04:53:28;100185.13;;;11.79;100.00
67840;BME280;54636;51.684;5.142;2023-03-23T04:55:54;100184.63;;;11.81;100.00
67840;BME280;54636;51.684;5.142;2023-03-23T04:58:19;100172.81;;;11.67;100.00
67840;BME280;54636;51.684;5.142;2023-03-23T05:00:45;100169.91;;;11.60;100.00
67840;BME280;54636;51.684;5.142;2023-03-23T05:03:18;100178.28;;;11.62;100.00
67840;BME280;54636;51.684;5.142;2023-03-23T05:05:45;100190.06;;;11.75;100.00
67840;BME280;54636;51.684;5.142;2023-03-23T05:08:19;100178.53;;;11.64;100.00
67840;BME280;54636;51.684;5.142;2023-03-23T05:10:56;100173.81;;;11.64;100.00
67840;BME280;54636;51.684;5.142;2023-03-23T05:13:22;100185.19;;;11.68;100.00
67840;BME280;54636;51.684;5.142;2023-03-23T05:15:47;100180.41;;;11.74;100.00
67840;BME280;54636;51.684;5.142;2023-03-23T05:18:13;100193.78;;;11.78;100.00
67840;BME280;54636;51.684;5.142;2023-03-23T05:20:39;100192.09;;;11.69;100.00
67840;BME280;54636;51.684;5.142;2023-03-23T05:23:05;100182.78;;;11.53;100.00
67840;BME280;54636;51.684;5.142;2023-03-23T05:25:30;100193.59;;;11.65;100.00
67840;BME280;54636;51.684;5.142;2023-03-23T05:27:57;100188.16;;;11.65;100.00
67840;BME280;54636;51.684;5.142;2023-03-23T05:30:24;100186.66;;;11.69;100.00
67840;BME280;54636;51.684;5.142;2023-03-23T05:32:49;100184.25;;;11.54;100.00
67840;BME280;54636;51.684;5.142;2023-03-23T05:35:17;100193.38;;;11.63;100.00
67840;BME280;54636;51.684;5.142;2023-03-23T05:37:43;100184.00;;;11.58;100.00
67840;BME280;54636;51.684;5.142;2023-03-23T05:40:09;100186.69;;;11.64;100.00
67840;BME280;54636;51.684;5.142;2023-03-23T05:42:37;100206.66;;;11.72;100.00
67840;BME280;54636;51.684;5.142;2023-03-23T05:45:04;100213.38;;;11.65;100.00
67840;BME280;54636;51.684;5.142;2023-03-23T05:47:29;100184.31;;;11.43;100.00
67840;BME280;54636;51.684;5.142;2023-03-23T05:49:56;100210.66;;;11.65;100.00
67840;BME280;54636;51.684;5.142;2023-03-23T05:52:21;100180.38;;;11.39;100.00
67840;BME280;54636;51.684;5.142;2023-03-23T05:54:49;100202.53;;;11.60;100.00
67840;BME280;54636;51.684;5.142;2023-03-23T05:57:14;100221.28;;;11.69;100.00
67840;BME280;54636;51.684;5.142;2023-03-23T05:59:39;100206.22;;;11.62;100.00
67840;BME280;54636;51.684;5.142;2023-03-23T06:02:05;100217.31;;;11.70;100.00
67840;BME280;54636;51.684;5.142;2023-03-23T06:04:30;100224.47;;;11.73;100.00
67840;BME280;54636;51.684;5.142;2023-03-23T06:07:02;100223.72;;;11.78;100.00
67840;BME280;54636;51.684;5.142;2023-03-23T06:09:27;100239.53;;;11.79;100.00
67840;BME280;54636;51.684;5.142;2023-03-23T06:11:53;100232.63;;;11.73;100.00
67840;BME280;54636;51.684;5.142;2023-03-23T06:14:18;100242.50;;;11.76;100.00
67840;BME280;54636;51.684;5.142;2023-03-23T06:16:44;100253.88;;;11.74;100.00
67840;BME280;54636;51.684;5.142;2023-03-23T06:19:09;100259.31;;;11.80;100.00
67840;BME280;54636;51.684;5.142;2023-03-23T06:21:36;100256.59;;;11.74;100.00
67840;BME280;54636;51.684;5.142;2023-03-23T06:24:02;100257.78;;;11.90;100.00
67840;BME280;54636;51.684;5.142;2023-03-23T06:26:39;100261.34;;;11.68;100.00
67840;BME280;54636;51.684;5.142;2023-03-23T06:29:06;100272.44;;;11.70;100.00
67840;BME280;54636;51.684;5.142;2023-03-23T06:31:41;100283.91;;;11.58;100.00
67840;BME280;54636;51.684;5.142;2023-03-23T06:34:08;100266.13;;;11.40;100.00
67840;BME280;54636;51.684;5.142;2023-03-23T06:36:35;100304.91;;;11.63;100.00
67840;BME280;54636;51.684;5.142;2023-03-23T06:39:01;100307.91;;;11.48;100.00
67840;BME280;54636;51.684;5.142;2023-03-23T06:41:29;100308.69;;;11.20;100.00
67840;BME280;54636;51.684;5.142;2023-03-23T06:43:55;100305.28;;;10.98;100.00
67840;BME280;54636;51.684;5.142;2023-03-23T06:46:20;100307.75;;;10.84;100.00
67840;BME280;54636;51.684;5.142;2023-03-23T06:48:46;100300.56;;;10.70;100.00
67840;BME280;54636;51.684;5.142;2023-03-23T06:51:14;100284.50;;;10.61;100.00
67840;BME280;54636;51.684;5.142;2023-03-23T06:53:40;100298.34;;;10.57;100.00
67840;BME280;54636;51.684;5.142;2023-03-23T06:56:06;100306.72;;;10.60;100.00
67840;BME280;54636;51.684;5.142;2023-03-23T06:58:32;100314.88;;;10.60;100.00
67840;BME280;54636;51.684;5.142;2023-03-23T07:00:57;100281.81;;;10.72;100.00
67840;BME280;54636;51.684;5.142;2023-03-23T07:03:24;100310.94;;;10.72;100.00
67840;BME280;54636;51.684;5.142;2023-03-23T07:05:50;100312.44;;;10.73;100.00
67840;BME280;54636;51.684;5.142;2023-03-23T07:08:16;100283.03;;;10.60;100.00
67840;BME280;54636;51.684;5.142;2023-03-23T07:10:41;100278.09;;;10.53;100.00
67840;BME280;54636;51.684;5.142;2023-03-23T07:13:07;100302.53;;;10.70;100.00
67840;BME280;54636;51.684;5.142;2023-03-23T07:15:32;100314.91;;;10.71;100.00
67840;BME280;54636;51.684;5.142;2023-03-23T07:17:57;100326.00;;;10.78;100.00
67840;BME280;54636;51.684;5.142;2023-03-23T07:20:23;100320.59;;;10.78;100.00
67840;BME280;54636;51.684;5.142;2023-03-23T07:22:48;100322.81;;;10.80;100.00
67840;BME280;54636;51.684;5.142;2023-03-23T07:25:14;100312.19;;;10.76;100.00
67840;BME280;54636;51.684;5.142;2023-03-23T07:27:40;100297.34;;;10.66;100.00
67840;BME280;54636;51.684;5.142;2023-03-23T07:30:06;100335.16;;;10.86;100.00
67840;BME280;54636;51.684;5.142;2023-03-23T07:32:32;100308.97;;;10.78;100.00
67840;BME280;54636;51.684;5.142;2023-03-23T07:34:58;100323.78;;;10.77;100.00
67840;BME280;54636;51.684;5.142;2023-03-23T07:37:24;100308.22;;;10.61;100.00
67840;BME280;54636;51.684;5.142;2023-03-23T07:39:49;100330.22;;;10.74;100.00
67840;BME280;54636;51.684;5.142;2023-03-23T07:42:14;100333.41;;;10.61;100.00
67840;BME280;54636;51.684;5.142;2023-03-23T07:44:40;100340.81;;;10.61;100.00
67840;BME280;54636;51.684;5.142;2023-03-23T07:47:05;100341.03;;;10.51;100.00
67840;BME280;54636;51.684;5.142;2023-03-23T07:49:31;100305.72;;;10.29;100.00
67840;BME280;54636;51.684;5.142;2023-03-23T07:51:57;100335.59;;;10.51;100.00
67840;BME280;54636;51.684;5.142;2023-03-23T07:54:24;100345.25;;;10.64;100.00
67840;BME280;54636;51.684;5.142;2023-03-23T07:56:49;100344.03;;;10.70;100.00
67840;BME280;54636;51.684;5.142;2023-03-23T07:59:15;100354.91;;;10.76;100.00
67840;BME280;54636;51.684;5.142;2023-03-23T08:01:41;100365.03;;;10.86;100.00
67840;BME280;54636;51.684;5.142;2023-03-23T08:04:06;100371.97;;;10.93;100.00
67840;BME280;54636;51.684;5.142;2023-03-23T08:06:33;100366.03;;;11.06;100.00
67840;BME280;54636;51.684;5.142;2023-03-23T08:08:59;100355.44;;;11.02;100.00
67840;BME280;54636;51.684;5.142;2023-03-23T08:11:26;100353.16;;;11.12;100.00
67840;BME280;54636;51.684;5.142;2023-03-23T08:13:51;100356.38;;;11.10;100.00
67840;BME280;54636;51.684;5.142;2023-03-23T08:16:17;100347.25;;;11.13;100.00
67840;BME280;54636;51.684;5.142;2023-03-23T08:18:44;100360.59;;;11.17;100.00
67840;BME280;54636;51.684;5.142;2023-03-23T08:21:09;100355.16;;;11.17;100.00
67840;BME280;54636;51.684;5.142;2023-03-23T08:23:36;100349.00;;;11.00;100.00
67840;BME280;54636;51.684;5.142;2023-03-23T08:26:03;100342.34;;;11.01;100.00
67840;BME280;54636;51.684;5.142;2023-03-23T08:28:29;100339.13;;;11.02;100.00
67840;BME280;54636;51.684;5.142;2023-03-23T08:30:55;100354.69;;;11.02;100.00
67840;BME280;54636;51.684;5.142;2023-03-23T08:33:20;100349.50;;;11.04;100.00
67840;BME280;54636;51.684;5.142;2023-03-23T08:35:54;100359.84;;;11.28;100.00
67840;BME280;54636;51.684;5.142;2023-03-23T08:38:20;100354.41;;;11.22;100.00
67840;BME280;54636;51.684;5.142;2023-03-23T08:40:46;100363.31;;;11.22;100.00
67840;BME280;54636;51.684;5.142;2023-03-23T08:43:12;100371.47;;;11.22;100.00
67840;BME280;54636;51.684;5.142;2023-03-23T08:45:38;100388.75;;;11.36;100.00
67840;BME280;54636;51.684;5.142;2023-03-23T08:48:03;100383.56;;;11.38;100.00
67840;BME280;54636;51.684;5.142;2023-03-23T08:50:29;100381.34;;;11.48;100.00
67840;BME280;54636;51.684;5.142;2023-03-23T08:52:55;100396.91;;;11.59;100.00
67840;BME280;54636;51.684;5.142;2023-03-23T08:55:21;100389.72;;;11.61;100.00
67840;BME280;54636;51.684;5.142;2023-03-23T08:57:47;100382.78;;;11.66;100.00
67840;BME280;54636;51.684;5.142;2023-03-23T09:00:18;100370.91;;;11.69;100.00
67840;BME280;54636;51.684;5.142;2023-03-23T09:02:48;100373.34;;;11.83;100.00
67840;BME280;54636;51.684;5.142;2023-03-23T09:05:16;100376.56;;;11.87;100.00
67840;BME280;54636;51.684;5.142;2023-03-23T09:07:45;100368.66;;;11.73;100.00
67840;BME280;54636;51.684;5.142;2023-03-23T09:10:11;100380.31;;;11.68;100.00
67840;BME280;54636;51.684;5.142;2023-03-23T09:12:39;100372.16;;;11.62;100.00
67840;BME280;54636;51.684;5.142;2023-03-23T09:15:06;100373.59;;;11.74;100.00
67840;BME280;54636;51.684;5.142;2023-03-23T09:17:36;100384.50;;;11.80;100.00
67840;BME280;54636;51.684;5.142;2023-03-23T09:20:03;100381.25;;;11.87;100.00
67840;BME280;54636;51.684;5.142;2023-03-23T09:22:34;100393.09;;;12.01;100.00
67840;BME280;54636;51.684;5.142;2023-03-23T09:25:00;100347.13;;;11.86;100.00
67840;BME280;54636;51.684;5.142;2023-03-23T09:27:25;100375.97;;;12.11;100.00
67840;BME280;54636;51.684;5.142;2023-03-23T09:29:51;100366.28;;;12.22;100.00
67840;BME280;54636;51.684;5.142;2023-03-23T09:32:16;100385.19;;;12.49;100.00
67840;BME280;54636;51.684;5.142;2023-03-23T09:34:41;100385.06;;;12.72;100.00
67840;BME280;54636;51.684;5.142;2023-03-23T09:37:07;100374.38;;;12.79;100.00
67840;BME280;54636;51.684;5.142;2023-03-23T09:39:33;100387.69;;;12.89;100.00
67840;BME280;54636;51.684;5.142;2023-03-23T09:50:24;100396.75;;;13.38;100.00
67840;BME280;54636;51.684;5.142;2023-03-23T09:53:02;100400.56;;;13.54;100.00
67840;BME280;54636;51.684;5.142;2023-03-23T09:55:30;100401.13;;;13.71;98.94
67840;BME280;54636;51.684;5.142;2023-03-23T09:58:17;100421.03;;;13.90;94.66
67840;BME280;54636;51.684;5.142;2023-03-23T10:03:27;100434.97;;;13.62;96.31
67840;BME280;54636;51.684;5.142;2023-03-23T10:05:58;100410.91;;;13.61;94.89
67840;BME280;54636;51.684;5.142;2023-03-23T10:08:26;100411.69;;;13.80;93.85
67840;BME280;54636;51.684;5.142;2023-03-23T10:11:31;100410.97;;;13.79;94.08
67840;BME280;54636;51.684;5.142;2023-03-23T10:16:37;100417.44;;;13.76;90.24
67840;BME280;54636;51.684;5.142;2023-03-23T10:19:35;100428.06;;;13.80;94.24
67840;BME280;54636;51.684;5.142;2023-03-23T10:22:14;100416.75;;;13.95;91.15
67840;BME280;54636;51.684;5.142;2023-03-23T10:30:28;100426.69;;;14.16;89.72
67840;BME280;54636;51.684;5.142;2023-03-23T10:35:33;100425.63;;;14.44;84.53
67840;BME280;54636;51.684;5.142;2023-03-23T10:38:04;100422.47;;;14.59;83.27
67840;BME280;54636;51.684;5.142;2023-03-23T10:40:31;100422.03;;;14.73;81.12
67840;BME280;54636;51.684;5.142;2023-03-23T10:43:00;100411.16;;;14.68;80.33
67840;BME280;54636;51.684;5.142;2023-03-23T10:45:28;100422.59;;;14.85;80.86
67840;BME280;54636;51.684;5.142;2023-03-23T10:48:09;100414.69;;;15.13;82.43
67840;BME280;54636;51.684;5.142;2023-03-23T10:50:37;100404.00;;;15.29;76.69
67840;BME280;54636;51.684;5.142;2023-03-23T10:53:13;100409.38;;;15.34;77.69
67840;BME280;54636;51.684;5.142;2023-03-23T10:55:41;100415.09;;;15.49;74.66
67840;BME280;54636;51.684;5.142;2023-03-23T10:58:11;100409.09;;;15.38;74.36
67840;BME280;54636;51.684;5.142;2023-03-23T11:00:45;100415.03;;;15.23;75.96
67840;BME280;54636;51.684;5.142;2023-03-23T11:05:42;100417.59;;;15.34;74.56
67840;BME280;54636;51.684;5.142;2023-03-23T11:08:13;100418.59;;;15.18;75.24
67840;BME280;54636;51.684;5.142;2023-03-23T11:11:14;100412.72;;;14.95;75.38
67840;BME280;54636;51.684;5.142;2023-03-23T11:13:32;100429.03;;;14.88;77.22
67840;BME280;54636;51.684;5.142;2023-03-23T11:15:59;100428.38;;;14.81;78.66
67840;BME280;54636;51.684;5.142;2023-03-23T11:18:40;100433.31;;;14.83;78.67
67840;BME280;54636;51.684;5.142;2023-03-23T11:21:11;100413.75;;;14.79;75.53
67840;BME280;54636;51.684;5.142;2023-03-23T11:23:39;100418.47;;;14.78;75.70
67840;BME280;54636;51.684;5.142;2023-03-23T11:29:08;100420.03;;;15.06;74.83
67840;BME280;54636;51.684;5.142;2023-03-23T11:31:40;100427.81;;;15.02;75.62
67840;BME280;54636;51.684;5.142;2023-03-23T11:34:11;100425.56;;;15.19;76.96
67840;BME280;54636;51.684;5.142;2023-03-23T11:36:58;100434.31;;;15.31;76.09
67840;BME280;54636;51.684;5.142;2023-03-23T11:39:28;100417.19;;;15.43;73.18
67840;BME280;54636;51.684;5.142;2023-03-23T11:41:59;100410.69;;;15.14;70.73
67840;BME280;54636;51.684;5.142;2023-03-23T11:44:32;100406.56;;;15.08;70.84
67840;BME280;54636;51.684;5.142;2023-03-23T11:47:00;100408.19;;;15.16;69.75
67840;BME280;54636;51.684;5.142;2023-03-23T11:49:51;100412.59;;;15.20;72.02
67840;BME280;54636;51.684;5.142;2023-03-23T11:52:24;100427.72;;;15.39;71.05
67840;BME280;54636;51.684;5.142;2023-03-23T11:55:09;100413.53;;;15.54;70.36
67840;BME280;54636;51.684;5.142;2023-03-23T11:57:37;100411.13;;;15.64;69.06
67840;BME280;54636;51.684;5.142;2023-03-23T12:00:12;100416.84;;;15.92;70.17
67840;BME280;54636;51.684;5.142;2023-03-23T12:02:59;100414.72;;;16.25;69.02
67840;BME280;54636;51.684;5.142;2023-03-23T12:22:51;100406.41;;;15.77;68.25
67840;BME280;54636;51.684;5.142;2023-03-23T12:30:50;100431.81;;;15.33;72.42
67840;BME280;54636;51.684;5.142;2023-03-23T12:44:55;100407.78;;;14.00;95.37
67840;BME280;54636;51.684;5.142;2023-03-23T12:47:47;100397.78;;;14.27;95.27
67840;BME280;54636;51.684;5.142;2023-03-23T12:50:40;100376.50;;;14.76;93.07
67840;BME280;54636;51.684;5.142;2023-03-23T12:53:30;100364.69;;;15.00;87.43
67840;BME280;54636;51.684;5.142;2023-03-23T12:58:44;100350.03;;;15.29;81.80
67840;BME280;54636;51.684;5.142;2023-03-23T13:01:14;100375.31;;;15.62;74.21
67840;BME280;54636;51.684;5.142;2023-03-23T13:03:51;100399.44;;;15.63;74.04
67840;BME280;54636;51.684;5.142;2023-03-23T13:11:53;100381.66;;;15.57;72.14
67840;BME280;54636;51.684;5.142;2023-03-23T13:14:50;100414.28;;;15.55;73.33
67840;BME280;54636;51.684;5.142;2023-03-23T13:17:26;100416.25;;;15.41;74.58
67840;BME280;54636;51.684;5.142;2023-03-23T13:20:04;100418.16;;;15.14;73.79
67840;BME280;54636;51.684;5.142;2023-03-23T13:22:50;100418.41;;;14.97;75.19
67840;BME280;54636;51.684;5.142;2023-03-23T13:25:18;100425.84;;;15.15;75.24
67840;BME280;54636;51.684;5.142;2023-03-23T13:27:58;100415.22;;;15.12;72.60
67840;BME280;54636;51.684;5.142;2023-03-23T13:30:24;100440.28;;;15.16;73.04
67840;BME280;54636;51.684;5.142;2023-03-23T13:32:51;100444.25;;;15.15;70.57
67840;BME280;54636;51.684;5.142;2023-03-23T13:35:19;100437.44;;;14.90;72.80
67840;BME280;54636;51.684;5.142;2023-03-23T13:37:49;100431.34;;;14.65;76.14
67840;BME280;54636;51.684;5.142;2023-03-23T13:40:29;100431.94;;;14.33;79.27
67840;BME280;54636;51.684;5.142;2023-03-23T13:42:58;100424.66;;;14.23;80.92
67840;BME280;54636;51.684;5.142;2023-03-23T13:48:18;100418.25;;;14.58;79.25
67840;BME280;54636;51.684;5.142;2023-03-23T13:50:57;100407.63;;;14.54;78.83
67840;BME280;54636;51.684;5.142;2023-03-23T13:53:46;100425.34;;;14.47;78.35
67840;BME280;54636;51.684;5.142;2023-03-23T13:56:35;100394.13;;;14.37;76.66
67840;BME280;54636;51.684;5.142;2023-03-23T13:59:16;100396.97;;;14.50;77.29
67840;BME280;54636;51.684;5.142;2023-03-23T14:01:42;100387.44;;;14.57;77.12
67840;BME280;54636;51.684;5.142;2023-03-23T14:04:16;100365.75;;;14.46;76.02
67840;BME280;54636;51.684;5.142;2023-03-23T14:06:44;100391.88;;;14.60;76.84
67840;BME280;54636;51.684;5.142;2023-03-23T14:09:15;100377.91;;;14.64;75.75
67840;BME280;54636;51.684;5.142;2023-03-23T14:11:48;100362.38;;;14.91;75.83
67840;BME280;54636;51.684;5.142;2023-03-23T14:14:22;100383.44;;;15.09;76.38
67840;BME280;54636;51.684;5.142;2023-03-23T14:16:49;100378.19;;;15.11;76.46
67840;BME280;54636;51.684;5.142;2023-03-23T14:21:58;100401.88;;;15.22;75.41
67840;BME280;54636;51.684;5.142;2023-03-23T14:24:30;100412.31;;;15.23;76.29
67840;BME280;54636;51.684;5.142;2023-03-23T14:27:10;100390.19;;;15.21;75.69
67840;BME280;54636;51.684;5.142;2023-03-23T14:29:36;100372.97;;;15.26;77.11
67840;BME280;54636;51.684;5.142;2023-03-23T14:32:02;100363.91;;;15.31;76.60
67840;BME280;54636;51.684;5.142;2023-03-23T14:34:31;100339.06;;;15.29;77.94